Mason, Ohio
Current Conditions -  °F | °C
As of 8:53 AM on Tuesday 21 Oct 2014 (Local Time) from KHAO Reporting Station
Overcast Overcast  
Wind Chill: 50°   Ceiling: 6000
Heat Index: 50°   Visibility: 10mi
Dew Point: 45°   Wind: 9mph
Humidity: 83%   Direction: 310°NW
Pressure: 30.02"   Gusts: NA
Location:  39.36°N, 84.3°W
Report Text: KHAO 211253Z AUTO 31008KT 10SM OVC060 10/07 A3002 RMK AO2 SLP165 T01000072
Loading
Personal Weather Stations






























Interactive Weather Map
Tropical Storm Tracking
New forecast layout! Learn more

10-Day Weather Forecast

Advertisements
Track Severe Weather on mobile